Time;durP1;ratioP1;P1;durP2;ratioP2;P2;SDS_P1;SDS_P2;PMS_P1;PMS_P2;Temp;Humidity;BMP_temperature;BMP_pressure;BME280_temperature;BME280_humidity;BME280_pressure;Samples;Min_cycle;Max_cycle;Signal;HPM_P1;HPM_P2
2021/01/13 00:01:28;;;;;;;2.45;0.20;;;20.80;39.40;;;;;;5057185;28;20389;-49
2021/01/13 00:03:54;;;;;;;0.80;0.30;;;20.80;39.40;;;;;;5052360;28;20033;-48
2021/01/13 00:06:20;;;;;;;2.10;0.20;;;20.80;39.40;;;;;;5057849;28;20040;-51
2021/01/13 00:08:45;;;;;;;1.58;0.30;;;20.70;39.30;;;;;;5065833;28;20071;-51
2021/01/13 00:11:13;;;;;;;1.88;0.25;;;20.70;39.40;;;;;;5050268;28;20422;-48
2021/01/13 00:13:38;;;;;;;0.65;0.20;;;20.70;39.30;;;;;;5054611;28;20025;-48
2021/01/13 00:16:04;;;;;;;2.35;0.20;;;20.70;39.30;;;;;;5065405;28;20082;-51
2021/01/13 00:18:30;;;;;;;2.80;0.52;;;20.70;39.30;;;;;;5059895;28;20032;-48
2021/01/13 00:20:55;;;;;;;1.60;0.20;;;20.60;39.30;;;;;;5068118;28;20031;-48
2021/01/13 00:23:21;;;;;;;2.38;0.20;;;20.60;39.30;;;;;;5055898;28;20043;-50
2021/01/13 00:25:46;;;;;;;1.30;0.22;;;20.60;39.30;;;;;;5056561;28;20021;-49
2021/01/13 00:28:12;;;;;;;1.10;0.30;;;20.60;39.40;;;;;;5058956;28;21290;-47
2021/01/13 00:30:37;;;;;;;0.90;0.20;;;20.60;39.40;;;;;;5069507;28;20409;-49
2021/01/13 00:33:06;;;;;;;1.08;0.22;;;20.50;39.40;;;;;;5063800;28;20031;-49
2021/01/13 00:35:32;;;;;;;0.63;0.10;;;20.50;39.40;;;;;;5067652;28;20033;-49
2021/01/13 00:37:57;;;;;;;1.33;0.20;;;20.50;39.50;;;;;;5063453;28;20105;-51
2021/01/13 00:40:23;;;;;;;0.75;0.30;;;20.50;39.60;;;;;;5060738;28;20092;-48
2021/01/13 00:42:49;;;;;;;1.27;0.20;;;20.40;39.50;;;;;;5061289;28;20079;-49
2021/01/13 00:45:16;;;;;;;1.42;0.25;;;20.40;39.50;;;;;;5066270;28;20036;-49
2021/01/13 00:47:42;;;;;;;1.05;0.20;;;20.40;39.60;;;;;;5067772;28;20079;-50
2021/01/13 00:50:10;;;;;;;0.90;0.22;;;20.40;39.60;;;;;;5067158;28;20032;-50
2021/01/13 00:52:36;;;;;;;0.65;0.10;;;20.40;39.60;;;;;;5063412;28;20021;-49
2021/01/13 00:55:02;;;;;;;0.50;0.10;;;20.30;39.60;;;;;;5063850;28;20082;-49
2021/01/13 00:57:28;;;;;;;0.70;0.20;;;20.30;39.60;;;;;;5069054;28;20462;-48
2021/01/13 00:59:53;;;;;;;0.65;0.20;;;20.30;39.70;;;;;;5060687;28;20091;-49
2021/01/13 01:02:19;;;;;;;0.40;0.20;;;20.30;39.70;;;;;;5049629;28;20401;-51
2021/01/13 01:04:44;;;;;;;0.38;0.10;;;20.30;39.70;;;;;;5058290;28;20047;-49
2021/01/13 01:07:10;;;;;;;0.77;0.13;;;20.30;39.80;;;;;;5048387;28;20061;-48
2021/01/13 01:09:35;;;;;;;0.98;0.20;;;20.20;39.80;;;;;;5066577;28;20028;-50
2021/01/13 01:12:01;;;;;;;1.15;0.20;;;20.20;39.80;;;;;;5067036;28;20037;-49
2021/01/13 01:14:27;;;;;;;1.58;0.20;;;20.20;39.70;;;;;;5062023;28;20029;-50
2021/01/13 01:16:52;;;;;;;0.90;0.20;;;20.20;39.80;;;;;;5049075;28;20056;-50
2021/01/13 01:19:18;;;;;;;0.82;0.13;;;20.20;39.80;;;;;;5063009;28;20033;-51
2021/01/13 01:21:44;;;;;;;0.75;0.20;;;20.20;39.80;;;;;;5068012;28;20428;-51
2021/01/13 01:24:10;;;;;;;1.15;0.10;;;20.20;39.80;;;;;;5068483;28;20434;-49
2021/01/13 01:26:56;;;;;;;0.93;0.10;;;20.10;39.80;;;;;;5053047;28;20033;-49
2021/01/13 01:29:22;;;;;;;0.88;0.20;;;20.10;39.80;;;;;;5065689;28;20052;-48
2021/01/13 01:31:49;;;;;;;0.70;0.10;;;20.10;39.80;;;;;;5065734;28;20112;-50
2021/01/13 01:34:15;;;;;;;2.08;0.20;;;20.10;39.80;;;;;;5057660;28;20245;-51
2021/01/13 01:36:40;;;;;;;1.00;0.22;;;20.10;39.80;;;;;;5050435;28;20040;-49
2021/01/13 01:39:06;;;;;;;1.27;0.10;;;20.10;39.90;;;;;;5059968;28;20036;-49
2021/01/13 01:41:31;;;;;;;1.27;0.20;;;20.00;39.80;;;;;;5050173;28;20112;-48
2021/01/13 01:43:57;;;;;;;1.95;0.22;;;20.10;39.80;;;;;;5054757;28;20297;-50
2021/01/13 01:46:25;;;;;;;0.70;0.20;;;20.00;39.90;;;;;;5067274;28;20039;-51
2021/01/13 01:48:53;;;;;;;1.00;0.20;;;20.00;39.90;;;;;;5058980;28;20032;-50
2021/01/13 01:51:25;;;;;;;0.52;0.10;;;20.00;39.90;;;;;;5067331;28;20041;-49
2021/01/13 01:54:24;;;;;;;0.82;0.10;;;20.00;39.90;;;;;;5059941;28;20032;-49
2021/01/13 01:56:53;;;;;;;1.40;0.40;;;20.00;39.90;;;;;;5018817;28;20044;-48
2021/01/13 01:59:34;;;;;;;1.58;0.30;;;20.00;39.80;;;;;;5059460;28;20053;-49
2021/01/13 02:02:03;;;;;;;0.95;0.20;;;20.00;39.90;;;;;;5056304;28;20061;-50
2021/01/13 02:04:32;;;;;;;0.63;0.10;;;20.00;39.90;;;;;;5055920;28;20305;-50
2021/01/13 02:06:57;;;;;;;0.50;0.10;;;19.90;39.80;;;;;;5067395;28;20084;-50
2021/01/13 02:09:24;;;;;;;0.70;0.10;;;19.90;39.80;;;;;;5048138;28;20115;-48
2021/01/13 02:11:53;;;;;;;0.80;0.20;;;19.90;39.80;;;;;;5066344;28;20028;-48
2021/01/13 02:14:19;;;;;;;0.43;0.10;;;19.90;39.80;;;;;;5067500;28;20412;-49
2021/01/13 02:16:53;;;;;;;0.98;0.17;;;19.90;39.80;;;;;;5062846;28;20032;-47
2021/01/13 02:19:46;;;;;;;0.70;0.20;;;19.90;39.80;;;;;;5061598;28;20032;-51
2021/01/13 02:22:13;;;;;;;1.00;0.10;;;19.90;39.90;;;;;;5064550;28;20036;-50
2021/01/13 02:25:10;;;;;;;0.80;0.20;;;19.90;39.90;;;;;;5057758;28;20161;-48
2021/01/13 02:28:19;;;;;;;1.38;0.10;;;19.80;39.80;;;;;;5054664;28;20039;-47
2021/01/13 02:31:04;;;;;;;0.43;0.10;;;19.80;39.80;;;;;;5020063;28;20359;-49
2021/01/13 02:33:50;;;;;;;1.00;0.10;;;19.80;39.80;;;;;;5065767;28;20037;-48
2021/01/13 02:36:22;;;;;;;0.68;0.10;;;19.80;39.80;;;;;;5062452;28;20029;-50
2021/01/13 02:38:52;;;;;;;0.30;0.10;;;19.70;39.80;;;;;;5049503;28;20060;-50
2021/01/13 02:41:26;;;;;;;1.10;0.35;;;19.70;39.80;;;;;;5060940;28;20033;-50
2021/01/13 02:43:59;;;;;;;0.60;0.10;;;19.70;39.80;;;;;;5064036;28;20029;-50
2021/01/13 02:47:15;;;;;;;0.50;0.10;;;19.70;39.80;;;;;;5057090;28;20031;-50
2021/01/13 02:49:50;;;;;;;0.90;0.13;;;19.70;39.80;;;;;;4975101;28;20399;-49
2021/01/13 02:52:24;;;;;;;2.15;0.10;;;19.70;39.70;;;;;;5001590;28;20026;-51
2021/01/13 02:54:55;;;;;;;0.70;0.10;;;19.70;39.80;;;;;;5040479;28;20033;-51
2021/01/13 02:57:28;;;;;;;1.67;0.23;;;19.70;39.80;;;;;;5082604;28;20058;-49
2021/01/13 02:59:58;;;;;;;1.25;0.13;;;19.60;39.80;;;;;;5073948;28;20029;-48
2021/01/13 03:02:39;;;;;;;0.30;0.10;;;19.60;39.80;;;;;;5072590;28;20037;-50
2021/01/13 03:05:05;;;;;;;1.10;0.10;;;19.60;39.80;;;;;;5053498;28;20040;-49
2021/01/13 03:07:36;;;;;;;2.08;0.10;;;19.60;39.80;;;;;;5062520;28;20517;-49
2021/01/13 03:10:11;;;;;;;0.57;0.10;;;19.60;39.80;;;;;;5067124;28;20036;-50
2021/01/13 03:12:40;;;;;;;1.08;0.20;;;19.60;39.90;;;;;;5068775;28;20518;-50
2021/01/13 03:15:06;;;;;;;0.45;0.13;;;19.60;39.90;;;;;;5054451;28;20040;-49
2021/01/13 03:17:35;;;;;;;0.70;0.20;;;19.50;39.90;;;;;;5070564;28;20029;-50
2021/01/13 03:20:10;;;;;;;0.80;0.13;;;19.60;39.80;;;;;;5068886;28;20036;-48
2021/01/13 03:22:43;;;;;;;0.93;0.20;;;19.60;39.80;;;;;;5062140;28;20033;-49
2021/01/13 03:25:11;;;;;;;0.82;0.10;;;19.60;39.80;;;;;;5057282;28;20556;-47
2021/01/13 03:27:42;;;;;;;0.95;0.10;;;19.50;39.90;;;;;;5065651;28;20036;-48
2021/01/13 03:30:10;;;;;;;0.52;0.10;;;19.50;39.90;;;;;;5063451;28;20032;-46
2021/01/13 03:33:02;;;;;;;1.10;0.10;;;19.50;39.90;;;;;;5058999;28;20021;-47
2021/01/13 03:35:43;;;;;;;0.75;0.10;;;19.50;39.90;;;;;;5067190;28;20099;-48
2021/01/13 03:38:19;;;;;;;1.20;0.20;;;19.50;40.00;;;;;;5069848;28;20071;-51
2021/01/13 03:40:47;;;;;;;1.33;0.10;;;19.50;39.80;;;;;;5061889;28;20029;-50
2021/01/13 03:43:17;;;;;;;0.55;0.10;;;19.50;39.80;;;;;;5066242;28;20489;-47
2021/01/13 03:45:55;;;;;;;2.13;0.30;;;19.40;39.80;;;;;;5062955;28;20024;-50
2021/01/13 03:48:58;;;;;;;0.65;0.10;;;19.40;39.80;;;;;;5064268;28;20041;-49
2021/01/13 03:51:32;;;;;;;1.30;0.10;;;19.40;39.90;;;;;;5006808;28;20034;-49
2021/01/13 03:54:03;;;;;;;0.60;0.10;;;19.40;39.90;;;;;;5059713;28;20033;-49
2021/01/13 03:56:36;;;;;;;1.55;0.10;;;19.40;39.90;;;;;;5061764;28;20409;-48
2021/01/13 03:59:11;;;;;;;0.43;0.10;;;19.40;39.90;;;;;;5055982;28;20048;-45
2021/01/13 04:01:52;;;;;;;2.28;0.30;;;19.40;39.80;;;;;;5060137;28;20094;-49
2021/01/13 04:05:06;;;;;;;1.10;0.10;;;19.40;39.90;;;;;;5066319;28;20029;-47
2021/01/13 04:07:38;;;;;;;1.10;0.22;;;19.30;39.90;;;;;;5061221;28;20041;-50
2021/01/13 04:10:12;;;;;;;1.20;0.20;;;19.30;39.90;;;;;;5059945;28;20032;-49
2021/01/13 04:13:01;;;;;;;0.30;0.10;;;19.30;39.90;;;;;;5052015;28;20465;-47
2021/01/13 04:15:35;;;;;;;0.50;0.10;;;19.30;39.90;;;;;;5059001;28;20032;-48
2021/01/13 04:18:04;;;;;;;0.60;0.10;;;19.30;39.90;;;;;;5063923;28;20389;-49
2021/01/13 04:20:30;;;;;;;0.70;0.30;;;19.30;39.80;;;;;;5067425;28;20071;-48
2021/01/13 04:22:56;;;;;;;0.90;0.10;;;19.20;39.80;;;;;;5066708;28;20025;-52
2021/01/13 04:25:22;;;;;;;0.70;0.20;;;19.30;39.90;;;;;;5056411;28;20050;-49
2021/01/13 04:27:48;;;;;;;1.25;0.20;;;19.30;39.90;;;;;;5058276;28;20058;-50
2021/01/13 04:30:15;;;;;;;1.25;0.10;;;19.30;39.90;;;;;;5064704;28;20028;-48
2021/01/13 04:32:41;;;;;;;1.15;0.20;;;19.20;39.70;;;;;;5054102;28;20029;-49
2021/01/13 04:35:07;;;;;;;0.80;0.10;;;19.20;39.80;;;;;;5064835;28;20017;-50
2021/01/13 04:37:35;;;;;;;0.98;0.30;;;19.20;39.80;;;;;;5066471;28;20059;-49
2021/01/13 04:40:21;;;;;;;0.68;0.10;;;19.20;39.80;;;;;;5067279;28;20117;-48
2021/01/13 04:42:58;;;;;;;0.88;0.22;;;19.20;39.80;;;;;;5053741;28;20059;-49
2021/01/13 04:45:34;;;;;;;0.82;0.10;;;19.20;39.80;;;;;;5062293;28;20374;-46
2021/01/13 04:48:08;;;;;;;0.70;0.20;;;19.20;40.30;;;;;;5067879;28;20036;-49
2021/01/13 04:50:37;;;;;;;0.90;0.10;;;19.20;39.70;;;;;;5063780;28;20667;-47
2021/01/13 04:53:15;;;;;;;0.52;0.10;;;19.20;39.70;;;;;;5067492;28;20025;-49
2021/01/13 04:55:55;;;;;;;0.65;0.10;;;19.10;39.70;;;;;;5052521;28;20032;-50
2021/01/13 04:58:21;;;;;;;1.48;0.10;;;19.10;39.80;;;;;;5052430;28;20393;-50
2021/01/13 05:01:08;;;;;;;0.50;0.10;;;19.10;39.70;;;;;;5065485;28;20044;-49
2021/01/13 05:03:40;;;;;;;0.43;0.10;;;19.10;39.60;;;;;;5053366;28;20036;-50
2021/01/13 05:06:44;;;;;;;1.25;0.20;;;19.10;39.60;;;;;;5056642;28;20093;-49
2021/01/13 05:09:11;;;;;;;1.42;0.17;;;19.10;39.70;;;;;;5034619;28;20048;-51
2021/01/13 05:11:49;;;;;;;0.32;0.10;;;19.10;39.80;;;;;;5054389;28;20039;-50
2021/01/13 05:14:16;;;;;;;0.50;0.10;;;19.10;39.60;;;;;;5065330;28;20090;-48
2021/01/13 05:16:50;;;;;;;0.93;0.10;;;19.10;39.50;;;;;;5063890;28;20477;-47
2021/01/13 05:19:31;;;;;;;1.05;0.10;;;19.10;39.60;;;;;;5061423;28;20033;-51
2021/01/13 05:21:58;;;;;;;0.80;0.20;;;19.10;39.50;;;;;;5061689;28;20029;-50
2021/01/13 05:24:26;;;;;;;0.40;0.10;;;19.00;39.50;;;;;;5068896;28;20059;-49
2021/01/13 05:27:26;;;;;;;0.57;0.10;;;19.10;39.60;;;;;;5065675;28;20470;-51
2021/01/13 05:30:00;;;;;;;1.10;0.28;;;19.00;39.60;;;;;;5032325;28;20464;-50
2021/01/13 05:32:27;;;;;;;0.60;0.10;;;19.00;39.60;;;;;;5067360;28;20078;-51
2021/01/13 05:34:57;;;;;;;0.40;0.10;;;19.00;39.30;;;;;;5065854;28;20024;-47
2021/01/13 05:38:04;;;;;;;0.68;0.10;;;19.00;39.50;;;;;;5061300;28;20047;-48
2021/01/13 05:40:30;;;;;;;0.30;0.08;;;19.00;39.50;;;;;;5026285;28;20041;-48
2021/01/13 05:42:59;;;;;;;1.23;0.17;;;19.00;39.60;;;;;;5062357;28;20028;-48
2021/01/13 05:45:26;;;;;;;0.50;0.13;;;19.00;39.50;;;;;;5066885;28;20537;-47
2021/01/13 05:47:55;;;;;;;0.75;0.10;;;19.00;39.40;;;;;;5065250;28;20070;-50
2021/01/13 05:50:24;;;;;;;0.80;0.10;;;19.00;39.40;;;;;;5065706;28;20040;-47
2021/01/13 05:52:52;;;;;;;1.25;0.13;;;19.00;39.40;;;;;;5059199;28;20446;-47
2021/01/13 05:55:19;;;;;;;2.75;0.20;;;18.90;39.30;;;;;;5058295;28;20032;-50
2021/01/13 05:57:59;;;;;;;1.30;0.20;;;18.90;39.20;;;;;;5058200;28;20036;-49
2021/01/13 06:00:29;;;;;;;0.68;0.10;;;19.00;39.60;;;;;;5060689;28;20505;-48
2021/01/13 06:02:57;;;;;;;0.85;0.10;;;18.90;39.10;;;;;;5054520;28;20497;-49
2021/01/13 06:05:24;;;;;;;0.77;0.00;;;18.90;39.20;;;;;;5048776;28;20025;-48
2021/01/13 06:07:52;;;;;;;1.35;0.15;;;18.90;39.00;;;;;;5057355;28;20115;-50
2021/01/13 06:10:19;;;;;;;1.10;0.10;;;18.90;39.00;;;;;;5067024;28;20031;-49
2021/01/13 06:12:48;;;;;;;0.98;0.10;;;18.90;38.80;;;;;;5059928;28;20086;-49
2021/01/13 06:15:14;;;;;;;0.47;0.10;;;18.90;38.80;;;;;;5058084;28;20136;-46
2021/01/13 06:17:50;;;;;;;0.68;0.10;;;18.90;38.90;;;;;;5054724;28;20052;-51
2021/01/13 06:20:23;;;;;;;0.43;0.05;;;19.00;39.10;;;;;;5080615;28;20032;-49
2021/01/13 06:22:50;;;;;;;0.20;0.03;;;19.00;39.10;;;;;;5062282;28;20041;-46
2021/01/13 06:25:21;;;;;;;0.60;0.10;;;19.10;39.00;;;;;;5067470;28;20485;-48
2021/01/13 06:27:58;;;;;;;0.95;0.10;;;19.30;38.90;;;;;;5051898;28;20244;-50
2021/01/13 06:30:31;;;;;;;0.47;0.10;;;19.40;38.60;;;;;;5053199;28;20033;-46
2021/01/13 06:33:09;;;;;;;0.63;0.10;;;19.50;38.50;;;;;;5070078;28;20048;-49
2021/01/13 06:35:41;;;;;;;1.65;0.10;;;19.60;38.30;;;;;;5066256;28;20032;-50
2021/01/13 06:38:35;;;;;;;0.28;0.10;;;19.70;38.20;;;;;;5066255;28;20040;-46
2021/01/13 06:41:02;;;;;;;1.85;0.10;;;19.80;38.20;;;;;;5063212;28;20056;-49
2021/01/13 06:43:29;;;;;;;0.43;0.10;;;19.80;38.10;;;;;;5066802;28;20602;-48
2021/01/13 06:45:58;;;;;;;0.50;0.10;;;19.80;38.10;;;;;;5069349;28;20028;-48
2021/01/13 06:48:25;;;;;;;0.35;0.10;;;19.90;38.20;;;;;;5071241;28;20033;-50
2021/01/13 06:50:56;;;;;;;0.30;0.00;;;19.90;38.10;;;;;;5070458;28;20108;-50
2021/01/13 06:53:22;;;;;;;0.55;0.17;;;19.90;38.10;;;;;;5064434;28;20387;-49
2021/01/13 06:55:50;;;;;;;0.73;0.00;;;19.90;38.10;;;;;;5047501;28;20549;-50
2021/01/13 06:58:18;;;;;;;0.32;0.10;;;19.90;38.10;;;;;;5071509;28;20031;-50
2021/01/13 07:00:45;;;;;;;0.40;0.10;;;19.90;38.10;;;;;;5071345;28;20056;-48
2021/01/13 07:03:30;;;;;;;0.57;0.05;;;20.00;38.10;;;;;;5069839;28;20040;-48
2021/01/13 07:06:09;;;;;;;0.52;0.00;;;20.00;38.00;;;;;;5070826;28;20029;-51
2021/01/13 07:08:35;;;;;;;0.52;0.03;;;20.10;38.00;;;;;;5068996;28;20281;-50
2021/01/13 07:11:05;;;;;;;0.50;0.05;;;20.20;37.90;;;;;;5069219;28;20484;-50
2021/01/13 07:13:40;;;;;;;0.38;0.08;;;20.20;38.40;;;;;;5056825;28;20135;-49
2021/01/13 07:16:06;;;;;;;0.38;0.00;;;20.20;37.80;;;;;;5072200;28;20363;-47
2021/01/13 07:18:33;;;;;;;0.30;0.10;;;20.20;37.80;;;;;;5064039;28;20098;-50
2021/01/13 07:21:07;;;;;;;0.68;0.10;;;20.30;37.80;;;;;;5070858;28;20030;-49
2021/01/13 07:23:33;;;;;;;0.57;0.10;;;20.30;37.90;;;;;;5061020;28;20461;-47
2021/01/13 07:25:59;;;;;;;0.43;0.10;;;20.30;37.90;;;;;;5062924;28;20104;-49
2021/01/13 07:28:26;;;;;;;0.55;0.10;;;20.30;38.00;;;;;;5055206;28;20090;-51
2021/01/13 07:30:53;;;;;;;0.65;0.10;;;20.20;38.10;;;;;;5079700;28;20040;-53
2021/01/13 07:33:19;;;;;;;0.40;0.08;;;20.20;38.20;;;;;;5074433;28;20100;-50
2021/01/13 07:35:47;;;;;;;0.20;0.05;;;20.20;38.30;;;;;;5084885;28;20028;-50
2021/01/13 07:38:19;;;;;;;0.75;0.10;;;20.10;38.50;;;;;;5069400;28;20062;-47
2021/01/13 07:41:06;;;;;;;2.20;0.00;;;20.00;38.70;;;;;;5067876;28;20359;-49
2021/01/13 07:44:02;;;;;;;0.52;0.10;;;20.00;38.80;;;;;;5058033;28;20058;-50
2021/01/13 07:46:33;;;;;;;1.13;0.10;;;19.90;38.80;;;;;;5061006;28;20025;-50
2021/01/13 07:49:04;;;;;;;1.00;0.20;;;19.90;38.80;;;;;;5059810;28;20112;-47
2021/01/13 07:51:34;;;;;;;1.10;0.15;;;19.90;38.90;;;;;;5068180;28;20444;-49
2021/01/13 07:54:17;;;;;;;0.95;0.30;;;19.80;38.90;;;;;;5059370;28;20064;-46
2021/01/13 07:56:47;;;;;;;3.90;0.22;;;19.80;38.90;;;;;;5058046;28;20033;-49
2021/01/13 07:59:31;;;;;;;0.60;0.10;;;19.80;38.70;;;;;;5062371;28;20564;-48
2021/01/13 08:02:34;;;;;;;2.28;0.10;;;19.80;38.70;;;;;;5053770;28;20060;-44
2021/01/13 08:05:08;;;;;;;0.60;0.10;;;20.00;39.30;;;;;;5054240;28;20028;-48
2021/01/13 08:07:41;;;;;;;1.10;0.13;;;20.20;38.50;;;;;;5061135;28;20031;-52
2021/01/13 08:10:08;;;;;;;1.55;0.10;;;20.30;38.10;;;;;;5069317;28;20108;-50
2021/01/13 08:13:03;;;;;;;0.98;0.30;;;20.40;38.10;;;;;;5069650;28;20032;-50
2021/01/13 08:15:46;;;;;;;0.45;0.10;;;20.50;38.10;;;;;;5066997;28;20143;-51
2021/01/13 08:18:30;;;;;;;1.83;0.40;;;20.60;38.30;;;;;;5064200;28;20040;-51
2021/01/13 08:21:26;;;;;;;1.25;0.25;;;20.60;38.60;;;;;;5080819;28;20036;-51
2021/01/13 08:23:59;;;;;;;1.58;0.20;;;20.60;39.10;;;;;;5070036;28;20494;-55
2021/01/13 08:26:25;;;;;;;2.30;0.13;;;20.70;39.00;;;;;;5074558;28;20152;-50
2021/01/13 08:28:52;;;;;;;1.30;0.10;;;20.70;39.00;;;;;;5073652;28;20047;-52
2021/01/13 08:31:24;;;;;;;0.68;0.10;;;20.70;38.90;;;;;;5077735;28;20044;-54
2021/01/13 08:34:01;;;;;;;;;;;20.70;39.00;;;;;;5076579;28;20099;-51
2021/01/13 08:36:28;;;;;;;2.20;0.50;;;20.80;39.00;;;;;;5077697;28;19913;-51
2021/01/13 08:39:14;;;;;;;3.05;0.10;;;20.70;38.90;;;;;;5075145;28;20031;-52
2021/01/13 08:41:41;;;;;;;4.13;0.38;;;20.80;38.90;;;;;;5076007;28;20050;-51
2021/01/13 08:44:15;;;;;;;2.00;0.30;;;20.80;38.90;;;;;;5071901;28;20029;-52
2021/01/13 08:46:47;;;;;;;1.00;0.15;;;20.90;39.10;;;;;;5069458;28;20031;-49
2021/01/13 08:49:45;;;;;;;1.23;0.15;;;20.90;39.10;;;;;;5065927;28;20401;-50
2021/01/13 08:52:24;;;;;;;1.42;0.20;;;20.90;39.10;;;;;;5016808;28;20029;-46
2021/01/13 08:54:56;;;;;;;4.45;0.25;;;20.90;38.90;;;;;;5066440;28;20033;-48
2021/01/13 08:57:23;;;;;;;;;;;20.90;39.10;;;;;;5070100;28;20048;-50
2021/01/13 08:59:49;;;;;;;1.98;0.15;;;20.90;38.90;;;;;;5068969;28;19909;-47
2021/01/13 09:02:17;;;;;;;1.20;0.40;;;20.90;38.90;;;;;;5064497;28;20056;-46
2021/01/13 09:04:47;;;;;;;1.63;0.30;;;20.90;39.20;;;;;;5056116;28;20390;-50
2021/01/13 09:07:14;;;;;;;1.00;0.15;;;20.90;39.10;;;;;;5063672;28;20054;-50
2021/01/13 09:09:53;;;;;;;1.90;0.20;;;20.90;39.20;;;;;;5065323;28;20031;-51
2021/01/13 09:12:32;;;;;;;1.42;0.50;;;20.90;39.00;;;;;;5057706;28;20035;-50
2021/01/13 09:15:07;;;;;;;1.58;0.47;;;20.90;39.10;;;;;;5066849;28;20040;-51
2021/01/13 09:17:38;;;;;;;1.25;0.43;;;20.80;39.30;;;;;;5064343;28;20063;-49
2021/01/13 09:20:13;;;;;;;2.75;0.57;;;20.80;39.40;;;;;;5066662;28;20107;-46
2021/01/13 09:22:47;;;;;;;2.08;0.55;;;20.80;39.20;;;;;;5059735;28;20064;-51
2021/01/13 09:25:16;;;;;;;2.67;0.60;;;20.80;39.20;;;;;;5061862;28;20043;-46
2021/01/13 09:27:45;;;;;;;2.75;0.88;;;20.80;39.40;;;;;;5062980;28;20075;-49
2021/01/13 09:30:27;;;;;;;5.65;0.60;;;20.80;39.30;;;;;;5060644;28;20370;-47
2021/01/13 09:32:55;;;;;;;5.10;0.80;;;20.90;39.50;;;;;;5058706;28;20032;-49
2021/01/13 09:35:32;;;;;;;3.70;0.80;;;20.90;39.30;;;;;;5065539;28;20040;-50
2021/01/13 09:38:07;;;;;;;2.90;0.98;;;20.90;39.70;;;;;;5055341;28;20131;-49
2021/01/13 09:41:04;;;;;;;4.20;1.20;;;20.80;39.70;;;;;;5069015;28;20064;-51
2021/01/13 09:43:46;;;;;;;5.40;0.90;;;20.80;39.50;;;;;;5059102;28;20118;-49
2021/01/13 09:46:23;;;;;;;2.70;0.93;;;20.80;39.50;;;;;;5058892;28;20036;-50
2021/01/13 09:48:59;;;;;;;4.45;0.95;;;20.70;39.60;;;;;;5063532;28;20393;-48
2021/01/13 09:51:25;;;;;;;3.45;0.77;;;20.70;39.40;;;;;;5066293;28;20036;-50
2021/01/13 09:53:56;;;;;;;2.13;0.85;;;20.70;39.60;;;;;;5062509;28;20082;-52
2021/01/13 09:56:23;;;;;;;5.28;0.82;;;20.80;39.60;;;;;;5065424;28;20037;-51
2021/01/13 09:58:51;;;;;;;4.30;1.30;;;20.80;39.40;;;;;;5064159;28;20024;-53
2021/01/13 10:01:19;;;;;;;2.28;0.50;;;21.00;39.40;;;;;;5080765;22;20049;-43
2021/01/13 10:03:47;;;;;;;1.67;0.60;;;21.10;39.30;;;;;;5062227;28;20031;-44
2021/01/13 10:06:24;;;;;;;2.35;1.25;;;21.20;39.20;;;;;;5060560;28;20478;-44
2021/01/13 10:08:51;;;;;;;4.78;1.10;;;21.30;39.10;;;;;;5061765;28;20414;-42
2021/01/13 10:11:19;;;;;;;2.80;1.13;;;21.30;39.00;;;;;;5040586;28;20040;-46
2021/01/13 10:14:06;;;;;;;2.47;0.55;;;21.30;39.00;;;;;;5070812;28;20028;-47
2021/01/13 10:16:38;;;;;;;2.70;1.00;;;21.40;39.00;;;;;;5061999;28;20031;-43
2021/01/13 10:19:04;;;;;;;3.97;0.75;;;21.40;38.90;;;;;;5066594;28;20043;-42
2021/01/13 10:21:41;;;;;;;2.30;0.80;;;21.40;38.90;;;;;;5068226;28;20037;-45
2021/01/13 10:24:09;;;;;;;2.08;0.88;;;21.40;39.00;;;;;;5058026;28;20063;-45
2021/01/13 10:26:35;;;;;;;2.40;0.90;;;21.40;38.90;;;;;;5062442;28;20028;-48
2021/01/13 10:29:01;;;;;;;2.08;0.63;;;21.40;39.00;;;;;;5063514;28;20043;-42
2021/01/13 10:31:29;;;;;;;3.80;0.90;;;21.40;39.10;;;;;;5058377;28;20033;-42
2021/01/13 10:33:55;;;;;;;2.50;0.80;;;21.50;39.00;;;;;;5066579;28;20032;-43
2021/01/13 10:36:34;;;;;;;2.83;1.15;;;21.60;38.90;;;;;;5065839;28;20032;-42
2021/01/13 10:39:27;;;;;;;5.25;0.85;;;21.50;39.00;;;;;;5060282;28;20529;-48
2021/01/13 10:41:54;;;;;;;4.28;1.05;;;21.60;38.90;;;;;;5059218;28;20032;-44
2021/01/13 10:44:27;;;;;;;2.92;0.65;;;21.60;39.20;;;;;;5066447;28;20037;-46
2021/01/13 10:46:57;;;;;;;2.55;0.77;;;21.60;39.10;;;;;;5065863;28;20069;-47
2021/01/13 10:49:36;;;;;;;2.38;0.90;;;21.60;39.20;;;;;;5058683;28;20374;-47
2021/01/13 10:52:14;;;;;;;1.85;0.63;;;21.70;39.00;;;;;;5038543;28;20479;-43
2021/01/13 10:54:43;;;;;;;1.83;0.82;;;21.70;39.20;;;;;;5059883;28;20244;-46
2021/01/13 10:57:11;;;;;;;3.42;1.02;;;21.70;39.20;;;;;;5059998;28;20036;-44
2021/01/13 10:59:38;;;;;;;2.15;0.50;;;21.70;39.20;;;;;;5058721;28;20041;-41
2021/01/13 11:02:09;;;;;;;3.10;0.60;;;21.70;39.00;;;;;;5063379;28;20050;-45
2021/01/13 11:04:42;;;;;;;3.05;0.75;;;21.70;39.10;;;;;;5064963;28;20020;-45
2021/01/13 11:07:16;;;;;;;2.55;1.10;;;21.70;39.10;;;;;;5066437;28;20063;-44
2021/01/13 11:09:44;;;;;;;2.35;0.77;;;21.70;39.30;;;;;;5067130;28;20035;-46
2021/01/13 11:12:11;;;;;;;3.30;0.90;;;21.70;39.40;;;;;;5069865;28;20405;-41
2021/01/13 11:14:39;;;;;;;2.50;0.82;;;21.60;39.50;;;;;;5066685;28;20496;-44
2021/01/13 11:17:12;;;;;;;2.60;0.82;;;21.60;39.50;;;;;;5068032;28;20505;-44
2021/01/13 11:19:39;;;;;;;2.45;0.77;;;21.50;39.50;;;;;;5069104;28;20055;-41
2021/01/13 11:22:06;;;;;;;2.80;0.82;;;21.60;39.60;;;;;;5060716;28;20095;-49
2021/01/13 11:24:37;;;;;;;1.67;0.57;;;21.50;39.60;;;;;;5051666;28;20036;-47
2021/01/13 11:27:11;;;;;;;3.80;0.80;;;21.50;39.50;;;;;;5066231;28;20073;-47
2021/01/13 11:29:40;;;;;;;2.60;1.33;;;21.50;39.60;;;;;;5068929;28;20028;-42
2021/01/13 11:32:07;;;;;;;3.10;1.17;;;21.50;39.80;;;;;;5065165;28;20039;-50
2021/01/13 11:34:34;;;;;;;4.03;0.98;;;21.40;39.90;;;;;;5071500;28;20028;-46
2021/01/13 11:37:18;;;;;;;2.65;0.95;;;21.40;40.00;;;;;;5041382;28;20630;-43
2021/01/13 11:40:05;;;;;;;4.00;0.95;;;21.30;40.10;;;;;;5070161;28;20029;-43
2021/01/13 11:43:09;;;;;;;2.22;0.90;;;21.40;40.20;;;;;;5072547;28;20043;-44
2021/01/13 11:45:45;;;;;;;2.55;1.23;;;21.30;40.30;;;;;;5040758;28;20036;-45
2021/01/13 11:48:15;;;;;;;2.70;0.93;;;21.30;40.20;;;;;;5062190;28;20054;-42
2021/01/13 11:50:46;;;;;;;3.72;1.50;;;21.30;40.20;;;;;;5067832;28;20685;-44
2021/01/13 11:53:19;;;;;;;;;;;21.30;40.20;;;;;;5067428;28;20020;-46
2021/01/13 11:55:45;;;;;;;3.75;1.95;;;21.30;40.10;;;;;;5071851;28;20049;-46
2021/01/13 11:58:16;;;;;;;3.00;1.08;;;21.10;40.30;;;;;;5065656;28;20042;-48
2021/01/13 12:00:42;;;;;;;4.30;1.38;;;21.10;40.30;;;;;;5064346;28;20063;-49
2021/01/13 12:03:09;;;;;;;4.93;1.70;;;21.10;40.20;;;;;;5062393;28;20079;-43
2021/01/13 12:05:38;;;;;;;1.55;1.00;;;21.10;40.30;;;;;;5067650;28;20056;-43
2021/01/13 12:08:09;;;;;;;1.80;1.17;;;21.20;40.30;;;;;;5059746;28;20910;-45
2021/01/13 12:10:38;;;;;;;3.30;1.55;;;21.30;40.10;;;;;;5054843;28;20028;-46
2021/01/13 12:13:14;;;;;;;2.30;0.75;;;21.30;39.90;;;;;;5064593;28;20150;-47
2021/01/13 12:16:06;;;;;;;3.15;1.30;;;21.40;39.80;;;;;;5065199;28;20104;-43
2021/01/13 12:18:35;;;;;;;2.97;1.30;;;21.50;39.70;;;;;;5066796;28;20028;-44
2021/01/13 12:21:21;;;;;;;1.25;0.73;;;21.60;39.60;;;;;;5069040;28;20044;-42
2021/01/13 12:23:50;;;;;;;2.05;1.10;;;21.70;39.60;;;;;;5069049;28;20358;-44
2021/01/13 12:26:32;;;;;;;3.28;1.48;;;21.70;39.50;;;;;;5066245;28;20040;-41
2021/01/13 12:29:13;;;;;;;3.03;1.33;;;21.80;39.60;;;;;;5068931;28;20020;-42
2021/01/13 12:31:41;;;;;;;1.95;1.15;;;21.80;39.50;;;;;;5068978;28;20028;-40
2021/01/13 12:34:18;;;;;;;2.30;1.38;;;21.80;39.60;;;;;;5070073;28;20040;-42
2021/01/13 12:36:46;;;;;;;3.42;1.20;;;21.90;39.50;;;;;;5069179;28;20013;-42
2021/01/13 12:39:23;;;;;;;1.80;1.27;;;21.80;39.70;;;;;;5070789;28;20035;-43
2021/01/13 12:41:51;;;;;;;2.72;1.25;;;21.90;39.80;;;;;;5069185;28;20036;-42
2021/01/13 12:44:19;;;;;;;2.13;1.08;;;21.90;39.80;;;;;;5068752;28;20028;-41
2021/01/13 12:47:03;;;;;;;1.25;0.85;;;21.90;39.80;;;;;;5067929;28;20043;-45
2021/01/13 12:49:29;;;;;;;3.45;0.73;;;21.90;39.70;;;;;;5060523;28;20021;-43
2021/01/13 12:51:59;;;;;;;2.33;1.10;;;21.90;39.70;;;;;;5067592;28;20024;-41
2021/01/13 12:54:26;;;;;;;1.05;0.90;;;21.90;39.60;;;;;;5056740;28;20043;-43
2021/01/13 12:56:52;;;;;;;1.95;1.10;;;21.90;39.40;;;;;;5060471;28;20035;-45
2021/01/13 12:59:18;;;;;;;4.20;1.05;;;21.90;39.60;;;;;;5048851;28;20355;-46
2021/01/13 13:01:46;;;;;;;1.23;0.85;;;21.90;39.30;;;;;;5062872;28;20036;-48
2021/01/13 13:04:13;;;;;;;1.42;0.85;;;21.90;39.60;;;;;;5067066;28;20025;-44
2021/01/13 13:06:39;;;;;;;4.45;0.93;;;21.90;39.60;;;;;;5068013;28;20017;-45
2021/01/13 13:09:14;;;;;;;2.88;1.20;;;21.90;39.60;;;;;;5060947;28;20028;-45
2021/01/13 13:11:40;;;;;;;4.38;1.50;;;21.90;39.60;;;;;;5056476;28;20098;-42
2021/01/13 13:14:13;;;;;;;5.63;0.80;;;21.90;39.70;;;;;;5068546;28;20100;-44
2021/01/13 13:16:42;;;;;;;8.98;0.95;;;21.80;39.70;;;;;;5062426;28;20041;-39